Time;durP1;ratioP1;P1;durP2;ratioP2;P2;SDS_P1;SDS_P2;PMS_P1;PMS_P2;Temp;Humidity;BMP_temperature;BMP_pressure;BME280_temperature;BME280_humidity;BME280_pressure;Samples;Min_cycle;Max_cycle;Signal;HPM_P1;HPM_P2
2022/04/13 00:00:47;;;;;;;1999.90;999.90;;;15.50;99.90;;;;;;5019993;28;20169;-71
2022/04/13 00:03:12;;;;;;;1999.90;999.90;;;15.30;99.90;;;;;;5019641;28;20448;-70
2022/04/13 00:05:38;;;;;;;1999.90;999.90;;;15.30;99.90;;;;;;5019237;28;20413;-71
2022/04/13 00:08:07;;;;;;;1999.90;999.90;;;15.30;99.90;;;;;;5020133;28;20227;-72
2022/04/13 00:10:34;;;;;;;1999.90;999.90;;;15.30;99.90;;;;;;5019877;28;20174;-71
2022/04/13 00:12:59;;;;;;;1999.90;999.90;;;15.20;99.90;;;;;;5019858;28;20455;-71
2022/04/13 00:15:25;;;;;;;1999.90;999.90;;;15.30;99.90;;;;;;5019719;28;20504;-71
2022/04/13 00:17:51;;;;;;;1999.90;999.90;;;15.30;99.90;;;;;;5019940;28;20203;-70
2022/04/13 00:20:16;;;;;;;1999.90;999.90;;;15.30;99.90;;;;;;5018763;28;20161;-71
2022/04/13 00:22:42;;;;;;;1999.90;999.90;;;15.50;99.90;;;;;;5019217;28;20209;-71
2022/04/13 00:25:08;;;;;;;1999.90;999.90;;;15.50;99.90;;;;;;5018716;28;20329;-69
2022/04/13 00:27:33;;;;;;;1999.90;999.90;;;15.60;99.90;;;;;;5018839;28;20170;-70
2022/04/13 00:29:59;;;;;;;1999.90;999.90;;;15.50;99.90;;;;;;5018755;28;20494;-70
2022/04/13 00:32:25;;;;;;;1999.90;999.90;;;15.40;99.90;;;;;;5019189;28;20593;-71
2022/04/13 00:34:51;;;;;;;1999.90;999.90;;;15.30;99.90;;;;;;5019047;28;20188;-71
2022/04/13 00:37:16;;;;;;;1999.90;999.90;;;15.20;99.90;;;;;;5018801;28;20414;-71
2022/04/13 00:39:43;;;;;;;1999.90;999.90;;;15.20;99.90;;;;;;5019260;28;20225;-71
2022/04/13 00:42:09;;;;;;;1999.90;999.90;;;15.20;99.90;;;;;;5018907;28;20266;-71
2022/04/13 00:44:35;;;;;;;1999.90;999.90;;;15.20;99.90;;;;;;5018207;28;20454;-71
2022/04/13 00:47:05;;;;;;;1999.90;999.90;;;15.20;99.90;;;;;;5018661;28;20480;-71
2022/04/13 00:49:31;;;;;;;1999.90;999.90;;;15.10;99.90;;;;;;5019707;28;20438;-71
2022/04/13 00:52:01;;;;;;;1999.90;999.90;;;15.10;99.90;;;;;;5018758;28;20451;-71
2022/04/13 00:54:29;;;;;;;1999.90;999.90;;;15.10;99.90;;;;;;5017624;28;20558;-71
2022/04/13 00:56:56;;;;;;;1999.90;999.90;;;15.00;99.90;;;;;;5019267;28;20502;-71
2022/04/13 00:59:24;;;;;;;1999.90;999.90;;;15.00;99.90;;;;;;5018628;28;20408;-71
2022/04/13 01:01:53;;;;;;;1999.90;999.90;;;15.10;99.90;;;;;;5018401;28;20533;-71
2022/04/13 01:04:19;;;;;;;1999.90;999.90;;;15.10;99.90;;;;;;5017968;28;20434;-71
2022/04/13 01:06:45;;;;;;;1999.90;999.90;;;15.10;99.90;;;;;;5018594;28;20481;-71
2022/04/13 01:09:13;;;;;;;1999.90;999.90;;;15.10;99.90;;;;;;5018182;28;20436;-71
2022/04/13 01:11:39;;;;;;;1999.90;999.90;;;15.10;99.90;;;;;;5017762;28;20473;-70
2022/04/13 01:14:04;;;;;;;1999.90;999.90;;;15.10;99.90;;;;;;5017876;28;20432;-70
2022/04/13 01:16:32;;;;;;;1999.90;999.90;;;15.10;99.90;;;;;;5017966;28;20400;-71
2022/04/13 01:18:57;;;;;;;1999.90;999.90;;;15.00;99.90;;;;;;5018416;28;20332;-71
2022/04/13 01:21:42;;;;;;;1999.90;999.90;;;15.00;99.90;;;;;;5019828;28;20447;-71
2022/04/13 01:24:07;;;;;;;1999.90;999.90;;;15.00;99.90;;;;;;5018505;28;20321;-71
2022/04/13 01:26:33;;;;;;;1999.90;999.90;;;14.90;99.90;;;;;;5017444;28;20926;-71
2022/04/13 01:28:59;;;;;;;1999.90;999.90;;;14.90;99.90;;;;;;5017707;28;20173;-70
2022/04/13 01:31:24;;;;;;;1999.90;999.90;;;14.80;99.90;;;;;;5017177;28;20194;-71
2022/04/13 01:33:50;;;;;;;1999.90;999.90;;;14.80;99.90;;;;;;5018895;28;20758;-71
2022/04/13 01:36:16;;;;;;;1999.90;999.90;;;14.80;99.90;;;;;;5019226;28;20176;-71
2022/04/13 01:38:42;;;;;;;1999.90;999.90;;;14.70;99.90;;;;;;5018711;28;20183;-71
2022/04/13 01:41:07;;;;;;;1999.90;999.90;;;14.70;99.90;;;;;;5017924;28;20177;-71
2022/04/13 01:43:33;;;;;;;1999.90;999.90;;;14.60;99.90;;;;;;5017402;28;20530;-69
2022/04/13 01:45:59;;;;;;;1999.90;999.90;;;14.50;99.90;;;;;;5017021;28;20238;-71
2022/04/13 01:48:24;;;;;;;1999.90;999.90;;;14.50;99.90;;;;;;5020549;28;20172;-70
2022/04/13 01:50:50;;;;;;;1999.90;999.90;;;14.50;99.90;;;;;;5020692;28;20183;-71
2022/04/13 01:53:16;;;;;;;1999.90;999.90;;;14.30;99.90;;;;;;5021221;28;20210;-71
2022/04/13 01:55:42;;;;;;;1999.90;999.90;;;14.20;99.90;;;;;;5021734;28;20906;-71
2022/04/13 01:58:08;;;;;;;1999.90;999.90;;;14.20;99.90;;;;;;5021421;28;20402;-71
2022/04/13 02:00:33;;;;;;;1999.90;999.90;;;14.20;99.90;;;;;;5021863;28;20195;-69
2022/04/13 02:02:59;;;;;;;1999.90;999.90;;;14.10;99.90;;;;;;5021655;28;20254;-71
2022/04/13 02:05:25;;;;;;;1999.90;999.90;;;13.90;99.90;;;;;;5022345;28;20200;-71
2022/04/13 02:07:51;;;;;;;1999.90;999.90;;;13.80;99.90;;;;;;5023135;28;20192;-71
2022/04/13 02:10:17;;;;;;;1999.90;999.90;;;13.70;99.90;;;;;;5023028;28;20500;-71
2022/04/13 02:12:44;;;;;;;1999.90;999.90;;;13.60;99.90;;;;;;5022539;28;20470;-71
2022/04/13 02:15:10;;;;;;;1999.90;999.90;;;13.60;99.90;;;;;;5023318;28;20844;-70
2022/04/13 02:17:38;;;;;;;1999.90;999.90;;;13.50;99.90;;;;;;5025246;28;20443;-70
2022/04/13 02:20:04;;;;;;;1999.90;999.90;;;13.50;99.90;;;;;;5022853;28;20170;-71
2022/04/13 02:22:30;;;;;;;1999.90;999.90;;;13.40;99.90;;;;;;5022998;28;20416;-70
2022/04/13 02:25:00;;;;;;;1999.90;999.90;;;13.40;99.90;;;;;;5023091;28;20413;-71
2022/04/13 02:27:26;;;;;;;1999.90;999.90;;;13.40;99.90;;;;;;5022889;28;20200;-69
2022/04/13 02:29:51;;;;;;;1999.90;999.90;;;13.30;99.90;;;;;;5023054;28;20408;-71
2022/04/13 02:32:17;;;;;;;1999.90;999.90;;;13.30;99.90;;;;;;5022718;28;20204;-71
2022/04/13 02:34:44;;;;;;;1999.90;999.90;;;13.40;99.90;;;;;;5022656;28;20167;-71
2022/04/13 02:37:11;;;;;;;1999.90;999.90;;;13.20;99.90;;;;;;5023953;28;20195;-70
2022/04/13 02:39:37;;;;;;;1999.90;999.90;;;13.10;99.90;;;;;;5024243;28;20402;-71
2022/04/13 02:42:03;;;;;;;1999.90;999.90;;;13.00;99.90;;;;;;5021166;28;20432;-69
2022/04/13 02:44:28;;;;;;;1999.90;999.90;;;12.90;99.90;;;;;;5021136;28;20228;-70
2022/04/13 02:46:54;;;;;;;1999.90;999.90;;;12.90;99.90;;;;;;5019810;28;20951;-71
2022/04/13 02:49:19;;;;;;;1999.90;999.90;;;13.00;99.90;;;;;;5020677;28;20171;-71
2022/04/13 02:51:45;;;;;;;1999.90;999.90;;;13.10;99.90;;;;;;5022072;28;20201;-71
2022/04/13 02:54:10;;;;;;;1999.90;999.90;;;13.20;99.90;;;;;;5019261;28;20285;-71
2022/04/13 02:56:36;;;;;;;1999.90;999.90;;;13.20;99.90;;;;;;5019516;28;20846;-71
2022/04/13 02:59:02;;;;;;;1999.90;999.90;;;13.30;99.90;;;;;;5020164;28;20520;-71
2022/04/13 03:01:27;;;;;;;1999.90;999.90;;;13.40;99.90;;;;;;5022035;28;20229;-71
2022/04/13 03:03:53;;;;;;;1999.90;999.90;;;13.40;99.90;;;;;;5021535;28;20195;-69
2022/04/13 03:06:19;;;;;;;1999.90;999.90;;;13.50;99.90;;;;;;5020401;28;20186;-71
2022/04/13 03:08:45;;;;;;;1999.90;999.90;;;13.50;99.90;;;;;;5022875;28;20176;-71
2022/04/13 03:11:11;;;;;;;1999.90;999.90;;;13.60;99.90;;;;;;5022983;28;20410;-71
2022/04/13 03:13:37;;;;;;;1999.90;999.90;;;13.60;99.90;;;;;;5021394;28;20207;-70
2022/04/13 03:16:03;;;;;;;1999.90;999.90;;;13.60;99.90;;;;;;5018299;28;20945;-71
2022/04/13 03:18:28;;;;;;;1999.90;999.90;;;13.70;99.90;;;;;;5019262;28;20202;-71
2022/04/13 03:20:54;;;;;;;1999.90;999.90;;;13.70;99.90;;;;;;5016701;28;20174;-71
2022/04/13 03:23:20;;;;;;;1999.90;999.90;;;13.60;99.90;;;;;;5017884;28;20222;-71
2022/04/13 03:25:45;;;;;;;1999.90;999.90;;;13.60;99.90;;;;;;5016595;28;20652;-70
2022/04/13 03:28:11;;;;;;;1999.90;999.90;;;13.40;99.90;;;;;;5016931;28;20220;-71
2022/04/13 03:30:36;;;;;;;1999.90;999.90;;;13.40;99.90;;;;;;5017268;28;20184;-71
2022/04/13 03:33:02;;;;;;;1999.90;999.90;;;13.40;99.90;;;;;;5017421;28;20213;-71
2022/04/13 03:35:28;;;;;;;1999.90;999.90;;;13.40;99.90;;;;;;5016613;28;20178;-71
2022/04/13 03:37:53;;;;;;;1999.90;999.90;;;13.40;99.90;;;;;;5016736;28;20432;-70
2022/04/13 03:40:19;;;;;;;1999.90;999.90;;;13.30;99.90;;;;;;5018743;28;20612;-71
2022/04/13 03:42:45;;;;;;;1999.90;999.90;;;13.20;99.90;;;;;;5018595;28;20189;-71
2022/04/13 03:45:12;;;;;;;1999.90;999.90;;;13.20;99.90;;;;;;5019130;28;20169;-71
2022/04/13 03:47:39;;;;;;;1999.90;999.90;;;13.20;99.90;;;;;;5018556;28;20172;-70
2022/04/13 03:50:06;;;;;;;1999.90;999.90;;;13.20;99.90;;;;;;5013255;28;20406;-71
2022/04/13 03:52:35;;;;;;;1999.90;999.90;;;13.20;99.90;;;;;;5017987;28;20497;-71
2022/04/13 03:55:05;;;;;;;1999.90;999.90;;;13.20;99.90;;;;;;5017814;28;20405;-70
2022/04/13 03:57:31;;;;;;;1999.90;999.90;;;13.30;99.90;;;;;;5013689;28;20941;-70
2022/04/13 03:59:57;;;;;;;1999.90;999.90;;;13.30;99.90;;;;;;5012965;28;20443;-70
2022/04/13 04:02:23;;;;;;;1999.90;999.90;;;13.30;99.90;;;;;;5012697;28;20408;-70
2022/04/13 04:04:49;;;;;;;1999.90;999.90;;;13.30;99.90;;;;;;5012475;28;20413;-70
2022/04/13 04:07:15;;;;;;;1999.90;999.90;;;13.40;99.90;;;;;;5012698;28;20188;-70
2022/04/13 04:09:40;;;;;;;1999.90;999.90;;;13.30;99.90;;;;;;5012574;28;20178;-71
2022/04/13 04:12:06;;;;;;;1999.90;999.90;;;13.30;99.90;;;;;;5012590;28;20458;-70
2022/04/13 04:14:32;;;;;;;1999.90;999.90;;;13.40;99.90;;;;;;5012237;28;20189;-70
2022/04/13 04:16:57;;;;;;;1999.90;999.90;;;13.40;99.90;;;;;;5012556;28;20439;-70
2022/04/13 04:19:23;;;;;;;1999.90;999.90;;;13.40;99.90;;;;;;5012524;28;20182;-70
2022/04/13 04:21:49;;;;;;;1999.90;999.90;;;13.40;99.90;;;;;;5012416;28;20232;-71
2022/04/13 04:24:14;;;;;;;1999.90;999.90;;;13.40;99.90;;;;;;5012012;28;20194;-69
2022/04/13 04:26:40;;;;;;;1999.90;999.90;;;13.40;99.90;;;;;;5012430;28;20176;-70
2022/04/13 04:29:06;;;;;;;1999.90;999.90;;;13.50;99.90;;;;;;5012502;28;20556;-70
2022/04/13 04:31:50;;;;;;;1999.90;999.90;;;13.40;99.90;;;;;;5012416;28;20177;-70
2022/04/13 04:34:16;;;;;;;1999.90;999.90;;;13.50;99.90;;;;;;5014101;28;20460;-71
2022/04/13 04:36:42;;;;;;;1999.90;999.90;;;13.50;99.90;;;;;;5018581;28;20414;-71
2022/04/13 04:39:08;;;;;;;1999.90;999.90;;;13.50;99.90;;;;;;5018178;28;20835;-71
2022/04/13 04:41:34;;;;;;;1999.90;999.90;;;13.50;99.90;;;;;;5018457;28;20176;-71
2022/04/13 04:44:00;;;;;;;1999.90;999.90;;;13.50;99.90;;;;;;5017876;28;20249;-71
2022/04/13 04:46:26;;;;;;;1999.90;999.90;;;13.50;99.90;;;;;;5018853;28;20464;-71
2022/04/13 04:48:52;;;;;;;1999.90;999.90;;;13.40;99.90;;;;;;5017646;28;20425;-71
2022/04/13 04:51:18;;;;;;;1999.90;999.90;;;13.40;99.90;;;;;;5018289;28;20407;-71
2022/04/13 04:53:44;;;;;;;1999.90;999.90;;;13.40;99.90;;;;;;5019158;28;20500;-71
2022/04/13 04:56:10;;;;;;;1999.90;999.90;;;13.30;99.90;;;;;;5017557;28;20835;-71
2022/04/13 04:58:35;;;;;;;1999.90;999.90;;;13.20;99.90;;;;;;5019817;28;20192;-71
2022/04/13 05:01:01;;;;;;;1999.90;999.90;;;13.30;99.90;;;;;;5017909;28;20178;-71
2022/04/13 05:03:27;;;;;;;1999.90;999.90;;;13.20;99.90;;;;;;5017902;28;20194;-71
2022/04/13 05:05:52;;;;;;;1999.90;999.90;;;13.20;99.90;;;;;;5017079;28;20409;-73
2022/04/13 05:08:18;;;;;;;1999.90;999.90;;;13.30;99.90;;;;;;5017748;28;20255;-70
2022/04/13 05:10:50;;;;;;;1999.90;999.90;;;13.30;99.90;;;;;;5017122;28;20631;-71
2022/04/13 05:13:17;;;;;;;1999.90;999.90;;;13.30;99.90;;;;;;5017195;28;20624;-71
2022/04/13 05:15:42;;;;;;;1999.90;999.90;;;13.40;99.90;;;;;;5016778;28;20428;-71
2022/04/13 05:18:08;;;;;;;1999.90;999.90;;;13.50;99.90;;;;;;5016626;28;20469;-70
2022/04/13 05:20:33;;;;;;;1999.90;999.90;;;13.50;99.90;;;;;;5016964;28;20165;-71
2022/04/13 05:22:59;;;;;;;1999.90;999.90;;;13.40;99.90;;;;;;5020335;28;20197;-71
2022/04/13 05:25:25;;;;;;;1999.90;999.90;;;13.50;99.90;;;;;;5020184;28;20622;-71
2022/04/13 05:27:50;;;;;;;1999.90;999.90;;;13.40;99.90;;;;;;5019930;28;20178;-70
2022/04/13 05:30:16;;;;;;;1999.90;999.90;;;13.50;99.90;;;;;;5020285;28;20248;-71
2022/04/13 05:32:49;;;;;;;1999.90;999.90;;;13.50;99.90;;;;;;5019148;28;20296;-70
2022/04/13 05:35:16;;;;;;;1999.90;999.90;;;13.60;99.90;;;;;;5015193;28;20637;-70
2022/04/13 05:37:42;;;;;;;1999.90;999.90;;;13.60;99.90;;;;;;5015633;28;20405;-70
2022/04/13 05:40:07;;;;;;;1999.90;999.90;;;13.60;99.90;;;;;;5015528;28;20914;-70
2022/04/13 05:42:33;;;;;;;1999.90;999.90;;;13.60;99.90;;;;;;5015294;28;20185;-70
2022/04/13 05:44:59;;;;;;;1999.90;999.90;;;13.60;99.90;;;;;;5014972;28;20341;-71
2022/04/13 05:47:25;;;;;;;1999.90;999.90;;;13.50;99.90;;;;;;5015250;28;20165;-70
2022/04/13 05:49:50;;;;;;;1999.90;999.90;;;13.50;99.90;;;;;;5015180;28;20178;-69
2022/04/13 05:52:16;;;;;;;1999.90;999.90;;;13.50;99.90;;;;;;5015678;28;20461;-70
2022/04/13 05:54:42;;;;;;;1999.90;999.90;;;13.50;99.90;;;;;;5015146;28;20401;-70
2022/04/13 05:57:08;;;;;;;1999.90;999.90;;;13.60;99.90;;;;;;5015457;28;20184;-70
2022/04/13 05:59:34;;;;;;;1999.90;999.90;;;13.60;99.90;;;;;;5015513;28;20170;-70
2022/04/13 06:02:00;;;;;;;1999.90;999.90;;;13.70;99.90;;;;;;5015885;28;20988;-70
2022/04/13 06:04:26;;;;;;;1999.90;999.90;;;13.70;99.90;;;;;;5015246;28;20838;-70
2022/04/13 06:06:52;;;;;;;1999.90;999.90;;;13.70;99.90;;;;;;5015450;28;20406;-70
2022/04/13 06:09:17;;;;;;;1999.90;999.90;;;13.80;99.90;;;;;;5015621;28;20212;-70
2022/04/13 06:11:43;;;;;;;1999.90;999.90;;;13.90;99.90;;;;;;5015440;28;20452;-70
2022/04/13 06:14:09;;;;;;;1999.90;999.90;;;14.00;99.90;;;;;;5015243;28;20312;-70
2022/04/13 06:16:34;;;;;;;1999.90;999.90;;;14.10;99.90;;;;;;5015595;28;20178;-70
2022/04/13 06:19:00;;;;;;;1999.90;999.90;;;14.20;99.90;;;;;;5015366;28;20259;-70
2022/04/13 06:21:25;;;;;;;1999.90;999.90;;;14.30;99.90;;;;;;5015336;28;20647;-71
2022/04/13 06:23:51;;;;;;;1999.90;999.90;;;14.40;99.90;;;;;;5015151;28;20196;-70
2022/04/13 06:26:17;;;;;;;1999.90;999.90;;;14.50;99.90;;;;;;5015159;28;20248;-70
2022/04/13 06:28:43;;;;;;;1999.90;999.90;;;14.60;99.90;;;;;;5015350;28;20538;-70
2022/04/13 06:31:09;;;;;;;1999.90;999.90;;;14.60;99.90;;;;;;5014964;28;20405;-70
2022/04/13 06:33:35;;;;;;;1999.90;999.90;;;14.70;99.90;;;;;;5013417;28;20296;-70
2022/04/13 06:36:01;;;;;;;1999.90;999.90;;;14.80;99.90;;;;;;5014672;28;20241;-70
2022/04/13 06:38:27;;;;;;;1999.90;999.90;;;15.00;99.90;;;;;;5014910;28;20211;-70
2022/04/13 06:40:53;;;;;;;1999.90;999.90;;;15.10;99.90;;;;;;5014559;28;20787;-70
2022/04/13 06:43:18;;;;;;;1999.90;999.90;;;15.20;99.90;;;;;;5014384;28;20270;-71
2022/04/13 06:45:44;;;;;;;1999.90;999.90;;;15.40;99.90;;;;;;5014150;28;20408;-71
2022/04/13 06:48:09;;;;;;;1999.90;999.90;;;15.50;99.90;;;;;;5014199;28;20611;-70
2022/04/13 06:50:36;;;;;;;1999.90;999.90;;;15.60;99.90;;;;;;5014685;28;20191;-70
2022/04/13 06:53:01;;;;;;;1999.90;999.90;;;15.70;99.90;;;;;;5014226;28;20288;-70
2022/04/13 06:55:27;;;;;;;1999.90;999.90;;;15.70;99.90;;;;;;5013987;28;20507;-70
2022/04/13 06:57:52;;;;;;;1999.90;999.90;;;15.80;99.90;;;;;;5014146;28;20203;-70
2022/04/13 07:00:18;;;;;;;1999.90;999.90;;;15.90;99.90;;;;;;5014182;28;20198;-70
2022/04/13 07:02:44;;;;;;;1999.90;999.90;;;16.10;99.90;;;;;;5013996;28;20193;-70
2022/04/13 07:05:11;;;;;;;1999.90;999.90;;;16.10;99.90;;;;;;5013832;28;20637;-70
2022/04/13 07:07:36;;;;;;;1999.90;999.90;;;16.10;99.90;;;;;;5014145;28;20239;-70
2022/04/13 07:10:03;;;;;;;1999.90;999.90;;;16.10;99.90;;;;;;5013977;28;21046;-70
2022/04/13 07:12:36;;;;;;;1999.90;999.90;;;16.10;99.90;;;;;;5013761;28;20578;-70
2022/04/13 07:15:02;;;;;;;1999.90;999.90;;;16.20;99.90;;;;;;5013613;28;20440;-70
2022/04/13 07:17:28;;;;;;;1999.90;999.90;;;16.20;99.90;;;;;;5013779;28;20415;-70
2022/04/13 07:19:54;;;;;;;1999.90;999.90;;;16.30;99.90;;;;;;5013791;28;20409;-70
2022/04/13 07:22:19;;;;;;;1999.90;999.90;;;16.50;99.90;;;;;;5013561;28;20176;-71
2022/04/13 07:24:45;;;;;;;1999.90;999.90;;;16.60;99.90;;;;;;5013437;28;20228;-70
2022/04/13 07:27:10;;;;;;;1999.90;999.90;;;16.60;99.90;;;;;;5013634;28;20263;-70
2022/04/13 07:29:36;;;;;;;1999.90;999.90;;;16.70;99.90;;;;;;5013587;28;20253;-70
2022/04/13 07:32:01;;;;;;;1999.90;999.90;;;16.70;99.90;;;;;;5013455;28;20674;-71
2022/04/13 07:34:27;;;;;;;1999.90;999.90;;;16.70;99.90;;;;;;5013079;28;20253;-70
2022/04/13 07:36:52;;;;;;;1999.90;999.90;;;16.80;99.90;;;;;;5013591;28;20740;-70
2022/04/13 07:39:18;;;;;;;1999.90;999.90;;;16.90;99.90;;;;;;5013360;28;20244;-70
2022/04/13 07:41:44;;;;;;;1999.90;999.90;;;17.00;99.90;;;;;;5013374;28;20641;-71
2022/04/13 07:44:11;;;;;;;1999.90;999.90;;;17.00;99.90;;;;;;5012560;28;20203;-70
2022/04/13 07:46:37;;;;;;;1999.90;999.90;;;17.10;99.90;;;;;;5013148;28;20436;-71
2022/04/13 07:49:05;;;;;;;1999.90;999.90;;;17.20;99.90;;;;;;5013037;28;20416;-71
2022/04/13 07:51:31;;;;;;;1999.90;999.90;;;17.20;99.90;;;;;;5012863;28;20187;-71
2022/04/13 07:53:57;;;;;;;1999.90;999.90;;;17.20;99.90;;;;;;5012792;28;20446;-71
2022/04/13 07:56:22;;;;;;;1999.90;999.90;;;17.20;99.90;;;;;;5012659;28;20255;-71
2022/04/13 07:58:48;;;;;;;1999.90;999.90;;;17.30;99.90;;;;;;5012788;28;20236;-71
2022/04/13 08:01:14;;;;;;;1999.90;999.90;;;17.40;99.90;;;;;;5012808;28;20173;-71
2022/04/13 08:03:40;;;;;;;1999.90;999.90;;;17.40;99.90;;;;;;5012652;28;20207;-71
2022/04/13 08:06:06;;;;;;;1999.90;999.90;;;17.40;99.90;;;;;;5012616;28;20549;-72
2022/04/13 08:08:32;;;;;;;1999.90;999.90;;;17.50;99.90;;;;;;5012687;28;20665;-71
2022/04/13 08:10:58;;;;;;;1999.90;999.90;;;17.60;99.90;;;;;;5012651;28;20404;-71
2022/04/13 08:13:23;;;;;;;1999.90;999.90;;;17.40;99.90;;;;;;5012277;28;20581;-72
2022/04/13 08:15:49;;;;;;;1999.90;999.90;;;17.30;99.90;;;;;;5012345;28;20179;-72
2022/04/13 08:18:15;;;;;;;1999.90;999.90;;;17.30;99.90;;;;;;5012674;28;20174;-71
2022/04/13 08:20:40;;;;;;;1999.90;999.90;;;17.20;99.90;;;;;;5012520;28;20177;-70
2022/04/13 08:23:06;;;;;;;1999.90;999.90;;;17.40;99.90;;;;;;5012485;28;20698;-71
2022/04/13 08:25:31;;;;;;;1999.90;999.90;;;17.60;99.90;;;;;;5012168;28;20180;-71
2022/04/13 08:27:57;;;;;;;1999.90;999.90;;;17.60;99.90;;;;;;5012342;28;20658;-71
2022/04/13 08:30:25;;;;;;;1999.90;999.90;;;17.60;99.90;;;;;;5012535;28;20188;-69
2022/04/13 08:32:50;;;;;;;1999.90;999.90;;;17.70;99.90;;;;;;5012251;28;20220;-71
2022/04/13 08:35:16;;;;;;;1999.90;999.90;;;17.80;99.90;;;;;;5012170;28;20455;-71
2022/04/13 08:37:43;;;;;;;1999.90;999.90;;;17.70;99.90;;;;;;5012304;28;20653;-72
2022/04/13 08:40:10;;;;;;;1999.90;999.90;;;17.70;99.90;;;;;;5012328;28;20825;-71
2022/04/13 08:43:04;;;;;;;1999.90;999.90;;;17.80;99.90;;;;;;5012091;28;20911;-71
2022/04/13 08:45:34;;;;;;;1999.90;999.90;;;17.90;99.90;;;;;;5011886;28;20755;-71
2022/04/13 08:48:02;;;;;;;1999.90;999.90;;;18.00;99.90;;;;;;5012283;28;20408;-71
2022/04/13 08:50:29;;;;;;;1999.90;999.90;;;18.20;99.90;;;;;;5012194;28;20424;-71
2022/04/13 08:53:02;;;;;;;1999.90;999.90;;;18.40;99.90;;;;;;5011961;28;20848;-70
2022/04/13 08:55:29;;;;;;;1999.90;999.90;;;18.50;99.90;;;;;;5011823;28;20438;-71
2022/04/13 08:58:12;;;;;;;1999.90;999.90;;;18.70;99.90;;;;;;5015804;28;20414;-72
2022/04/13 09:00:46;;;;;;;1999.90;999.90;;;19.00;99.90;;;;;;5012558;28;20439;-71
2022/04/13 09:03:36;;;;;;;1999.90;999.90;;;19.20;99.90;;;;;;5015884;28;20950;-70
2022/04/13 09:06:03;;;;;;;1999.90;999.90;;;19.20;99.90;;;;;;5015002;28;20418;-71
2022/04/13 09:08:52;;;;;;;1999.90;999.90;;;19.30;99.90;;;;;;5015440;28;20494;-71
2022/04/13 09:11:22;;;;;;;1999.90;999.90;;;19.60;99.90;;;;;;5015525;28;20473;-71
2022/04/13 09:13:49;;;;;;;1999.90;999.90;;;19.50;99.90;;;;;;5014904;28;20512;-71
2022/04/13 09:16:15;;;;;;;1999.90;999.90;;;19.30;99.90;;;;;;5015443;28;20468;-72
2022/04/13 09:18:45;;;;;;;1999.90;999.90;;;19.10;99.90;;;;;;5015404;28;20894;-71
2022/04/13 09:21:19;;;;;;;1999.90;999.90;;;19.10;99.90;;;;;;5015057;28;20410;-71
2022/04/13 09:23:45;;;;;;;1999.90;999.90;;;19.20;99.90;;;;;;5015360;28;20413;-72
2022/04/13 09:26:10;;;;;;;1999.90;999.90;;;19.20;99.90;;;;;;5015086;28;20529;-72
2022/04/13 09:28:37;;;;;;;1999.90;999.90;;;19.30;99.90;;;;;;5014563;28;20211;-71
2022/04/13 09:31:03;;;;;;;1999.90;999.90;;;19.40;99.90;;;;;;5015204;28;20183;-70
2022/04/13 09:33:29;;;;;;;1999.90;999.90;;;19.40;99.90;;;;;;5016008;28;20600;-71
2022/04/13 09:35:55;;;;;;;1999.90;999.90;;;19.40;99.90;;;;;;5017587;28;20504;-71
2022/04/13 09:38:21;;;;;;;1999.90;999.90;;;19.40;99.90;;;;;;5018894;28;20485;-71
2022/04/13 09:40:51;;;;;;;1999.90;999.90;;;19.50;99.90;;;;;;5017239;28;20183;-71
2022/04/13 09:43:19;;;;;;;1999.90;999.90;;;19.50;99.90;;;;;;5017397;28;20198;-69
2022/04/13 09:45:48;;;;;;;1999.90;999.90;;;19.70;99.90;;;;;;5017347;28;20440;-70
2022/04/13 09:48:15;;;;;;;1999.90;999.90;;;19.80;99.90;;;;;;5017993;28;20505;-71
2022/04/13 09:50:43;;;;;;;1999.90;999.90;;;19.80;99.90;;;;;;5017452;28;20390;-71
2022/04/13 09:53:10;;;;;;;1999.90;999.90;;;19.90;99.90;;;;;;5018067;28;20478;-71
2022/04/13 09:55:44;;;;;;;1999.90;999.90;;;20.00;99.90;;;;;;5014479;28;20468;-71
2022/04/13 09:58:14;;;;;;;1999.90;999.90;;;20.00;99.90;;;;;;5014198;28;20415;-71
2022/04/13 10:00:42;;;;;;;1999.90;999.90;;;20.10;99.90;;;;;;5014168;28;20412;-71
2022/04/13 10:03:19;;;;;;;1999.90;999.90;;;20.30;99.90;;;;;;5014658;28;20791;-72
2022/04/13 10:05:47;;;;;;;1999.90;999.90;;;20.10;99.90;;;;;;5013998;28;20465;-72
2022/04/13 10:08:15;;;;;;;1999.90;999.90;;;20.30;99.90;;;;;;5014114;28;20425;-72
2022/04/13 10:10:42;;;;;;;1999.90;999.90;;;20.20;99.90;;;;;;5014651;28;20866;-72
2022/04/13 10:13:08;;;;;;;1999.90;999.90;;;20.20;99.90;;;;;;5014032;28;20979;-72
2022/04/13 10:15:34;;;;;;;1999.90;999.90;;;20.60;99.90;;;;;;5014093;28;20408;-71
2022/04/13 10:18:01;;;;;;;1999.90;999.90;;;20.80;99.90;;;;;;5014289;28;20175;-71
2022/04/13 10:20:46;;;;;;;1999.90;999.90;;;20.90;99.90;;;;;;5013210;28;20235;-71
2022/04/13 10:23:13;;;;;;;1999.90;999.90;;;21.00;99.90;;;;;;5014467;28;20412;-72
2022/04/13 10:25:39;;;;;;;1999.90;999.90;;;21.20;99.90;;;;;;5013997;28;20481;-72
2022/04/13 10:28:06;;;;;;;1999.90;999.90;;;21.50;99.90;;;;;;5013649;28;20469;-72
2022/04/13 10:30:36;;;;;;;1999.90;999.90;;;21.70;99.90;;;;;;5014075;28;20390;-72
2022/04/13 10:33:11;;;;;;;1999.90;999.90;;;22.20;99.90;;;;;;5013840;28;20557;-70
2022/04/13 10:35:46;;;;;;;1999.90;999.90;;;22.40;99.90;;;;;;5013470;28;20438;-72
2022/04/13 10:38:12;;;;;;;1999.90;999.90;;;22.40;99.90;;;;;;5014126;28;20781;-72
2022/04/13 10:40:42;;;;;;;1999.90;999.90;;;22.10;99.90;;;;;;5013863;28;20420;-71
2022/04/13 10:43:11;;;;;;;1999.90;999.90;;;21.60;99.90;;;;;;5013363;28;20414;-71
2022/04/13 10:45:39;;;;;;;1999.90;999.90;;;21.40;99.90;;;;;;5013566;28;20429;-71
2022/04/13 10:48:09;;;;;;;1999.90;999.90;;;21.40;99.90;;;;;;5013801;28;20388;-71
2022/04/13 10:50:41;;;;;;;1999.90;999.90;;;21.40;99.90;;;;;;5013467;28;20433;-72
2022/04/13 10:53:28;;;;;;;1999.90;999.90;;;21.30;99.90;;;;;;5013665;28;20485;-70
2022/04/13 10:56:03;;;;;;;1999.90;999.90;;;21.50;99.90;;;;;;5013391;28;20459;-71
2022/04/13 10:58:49;;;;;;;1999.90;999.90;;;21.60;99.90;;;;;;5013022;28;20404;-70
2022/04/13 11:01:18;;;;;;;1999.90;999.90;;;21.90;99.90;;;;;;5013613;28;20384;-70
2022/04/13 11:03:44;;;;;;;1999.90;999.90;;;22.00;99.90;;;;;;5013516;28;20523;-70
2022/04/13 11:06:11;;;;;;;1999.90;999.90;;;21.70;99.90;;;;;;5012871;28;20461;-70
2022/04/13 11:09:00;;;;;;;1999.90;999.90;;;21.60;99.90;;;;;;5013347;28;20236;-70
2022/04/13 11:11:28;;;;;;;1999.90;999.90;;;21.40;99.90;;;;;;5013309;28;20880;-70
2022/04/13 11:13:54;;;;;;;1999.90;999.90;;;21.30;99.90;;;;;;5012792;28;20936;-69
2022/04/13 11:16:22;;;;;;;1999.90;999.90;;;21.40;99.90;;;;;;5013112;28;20794;-70
2022/04/13 11:19:06;;;;;;;1999.90;999.90;;;21.80;99.90;;;;;;5012263;28;20385;-70
2022/04/13 11:21:54;;;;;;;1999.90;999.90;;;21.90;99.90;;;;;;5013094;28;20750;-70
2022/04/13 11:24:37;;;;;;;1999.90;999.90;;;21.60;99.90;;;;;;5012681;28;20818;-69
2022/04/13 11:27:04;;;;;;;1999.90;999.90;;;21.40;99.90;;;;;;5012587;28;20471;-71
2022/04/13 11:30:03;;;;;;;1999.90;999.90;;;21.00;99.90;;;;;;5013348;28;20398;-71
2022/04/13 11:32:36;;;;;;;1999.90;999.90;;;20.80;99.90;;;;;;5009628;28;20466;-71
2022/04/13 11:35:04;;;;;;;1999.90;999.90;;;20.60;99.90;;;;;;5024463;22;20485;-71
2022/04/13 11:37:35;;;;;;;1999.90;999.90;;;20.60;99.90;;;;;;5012165;28;20375;-73
2022/04/13 11:40:05;;;;;;;1999.90;999.90;;;20.60;99.90;;;;;;5012439;28;20399;-71
2022/04/13 11:42:38;;;;;;;1999.90;999.90;;;20.90;99.90;;;;;;5011429;28;20472;-70
2022/04/13 11:45:05;;;;;;;1999.90;999.90;;;21.00;99.90;;;;;;5011809;28;20402;-69
2022/04/13 11:47:50;;;;;;;1999.90;999.90;;;21.00;99.90;;;;;;5012310;28;20396;-69
2022/04/13 11:50:19;;;;;;;1999.90;999.90;;;21.00;99.90;;;;;;5012717;28;20429;-70
2022/04/13 11:53:14;;;;;;;1999.90;999.90;;;21.30;99.90;;;;;;5012302;28;20427;-71
2022/04/13 11:55:39;;;;;;;1999.90;999.90;;;22.10;99.90;;;;;;5010934;28;20675;-71
2022/04/13 11:58:07;;;;;;;1999.90;999.90;;;22.50;99.90;;;;;;5011907;28;21174;-69
2022/04/13 12:00:50;;;;;;;1999.90;999.90;;;22.50;99.90;;;;;;5012381;28;20163;-70